Time,TemperatureF,DewpointF,PressureIn,WindDirection,WindDirectionDegrees,WindSpeedMPH,WindSpeedGustMPH,Humidity,HourlyPrecipIn,Conditions,Clouds,dailyrainin,SoftwareType,DateUTC
2013-02-10 00:01:00,14.0,4.0,-100.00,SW,215,5.0,9.0,63,-99.99,,,-99.99,,2013-02-10 07:01:00,
2013-02-10 00:11:00,14.0,4.0,-100.00,SW,215,5.0,9.0,63,-99.99,,,-99.99,,2013-02-10 07:11:00,
2013-02-10 00:21:00,15.0,5.0,-100.00,SW,215,4.0,11.0,64,-99.99,,,-99.99,,2013-02-10 07:21:00,
2013-02-10 00:31:00,15.0,5.0,-100.00,SW,215,4.0,11.0,64,-99.99,,,-99.99,,2013-02-10 07:31:00,
2013-02-10 00:41:00,15.0,5.0,-100.00,SW,220,4.0,11.0,65,-99.99,,,-99.99,,2013-02-10 07:41:00,
2013-02-10 00:52:00,15.0,5.0,-100.00,SW,220,4.0,11.0,65,-99.99,,,-99.99,,2013-02-10 07:52:00,
2013-02-10 01:01:00,14.0,6.0,-100.00,SW,230,6.0,14.0,66,-99.99,,,-99.99,,2013-02-10 08:01:00,
2013-02-10 01:11:00,14.0,6.0,-100.00,SW,230,6.0,14.0,66,-99.99,,,-99.99,,2013-02-10 08:11:00,
2013-02-10 01:21:00,14.0,6.0,-100.00,SW,230,7.0,17.0,67,-99.99,,,-99.99,,2013-02-10 08:21:00,
2013-02-10 01:32:00,14.0,6.0,-100.00,SW,230,7.0,17.0,67,-99.99,,,-99.99,,2013-02-10 08:32:00,
2013-02-10 01:43:00,14.0,6.0,-100.00,SW,235,7.0,14.0,68,-99.99,,,-99.99,,2013-02-10 08:43:00,
2013-02-10 01:52:00,14.0,6.0,-100.00,SW,235,7.0,14.0,68,-99.99,,,-99.99,,2013-02-10 08:52:00,
2013-02-10 02:02:00,14.0,5.0,-100.00,SW,235,6.0,19.0,68,-99.99,,,-99.99,,2013-02-10 09:02:00,
2013-02-10 02:11:00,14.0,5.0,-100.00,SW,235,6.0,19.0,68,-99.99,,,-99.99,,2013-02-10 09:11:00,
2013-02-10 02:21:00,14.0,5.0,-100.00,SW,230,7.0,15.0,66,-99.99,,,-99.99,,2013-02-10 09:21:00,
2013-02-10 02:32:00,14.0,5.0,-100.00,SW,230,7.0,15.0,66,-99.99,,,-99.99,,2013-02-10 09:32:00,
2013-02-10 02:41:00,14.0,5.0,-100.00,SW,225,8.0,24.0,65,-99.99,,,-99.99,,2013-02-10 09:41:00,
2013-02-10 02:52:00,14.0,5.0,-100.00,SW,225,8.0,24.0,65,-99.99,,,-99.99,,2013-02-10 09:52:00,
2013-02-10 03:01:00,14.0,5.0,-100.00,SW,225,5.0,24.0,66,-99.99,,,-99.99,,2013-02-10 10:01:00,
2013-02-10 03:11:00,14.0,5.0,-100.00,SW,225,5.0,24.0,66,-99.99,,,-99.99,,2013-02-10 10:11:00,
2013-02-10 03:21:00,14.0,5.0,-100.00,SW,235,6.0,32.0,68,-99.99,,,-99.99,,2013-02-10 10:21:00,
2013-02-10 03:31:00,14.0,5.0,-100.00,SW,235,6.0,32.0,68,-99.99,,,-99.99,,2013-02-10 10:31:00,
2013-02-10 03:41:00,14.0,5.0,-100.00,SW,230,5.0,12.0,66,-99.99,,,-99.99,,2013-02-10 10:41:00,
2013-02-10 03:52:00,14.0,5.0,-100.00,SW,230,5.0,12.0,66,-99.99,,,-99.99,,2013-02-10 10:52:00,
2013-02-10 04:01:00,13.0,4.0,-100.00,SW,230,6.0,13.0,67,-99.99,,,-99.99,,2013-02-10 11:01:00,
2013-02-10 04:11:00,13.0,4.0,-100.00,SW,230,6.0,13.0,67,-99.99,,,-99.99,,2013-02-10 11:11:00,
2013-02-10 04:21:00,13.0,4.0,-100.00,SW,230,7.0,-999.0,67,-99.99,,,-99.99,,2013-02-10 11:21:00,
2013-02-10 04:32:00,13.0,4.0,-100.00,SW,230,7.0,-999.0,67,-99.99,,,-99.99,,2013-02-10 11:32:00,
2013-02-10 04:42:00,13.0,4.0,-100.00,SW,235,13.0,20.0,68,-99.99,,,-99.99,,2013-02-10 11:42:00,
2013-02-10 04:52:00,13.0,4.0,-100.00,SW,235,13.0,20.0,68,-99.99,,,-99.99,,2013-02-10 11:52:00,
2013-02-10 05:01:00,12.0,4.0,-100.00,WSW,240,8.0,-999.0,70,-99.99,,,-99.99,,2013-02-10 12:01:00,
2013-02-10 05:12:00,12.0,4.0,-100.00,WSW,240,8.0,-999.0,70,-99.99,,,-99.99,,2013-02-10 12:12:00,
2013-02-10 05:21:00,12.0,5.0,-100.00,WSW,250,6.0,16.0,72,-99.99,,,-99.99,,2013-02-10 12:21:00,
2013-02-10 05:32:00,12.0,5.0,-100.00,WSW,250,6.0,16.0,72,-99.99,,,-99.99,,2013-02-10 12:32:00,
2013-02-10 05:41:00,12.0,5.0,-100.00,WSW,250,7.0,13.0,72,-99.99,,,-99.99,,2013-02-10 12:41:00,
2013-02-10 05:52:00,12.0,5.0,-100.00,WSW,250,7.0,13.0,72,-99.99,,,-99.99,,2013-02-10 12:52:00,
2013-02-10 06:02:00,12.0,4.0,-100.00,North,-999,-999.0,-999.0,67,-99.99,,,-99.99,,2013-02-10 13:02:00,
2013-02-10 06:11:00,12.0,4.0,-100.00,North,-999,-999.0,-999.0,67,-99.99,,,-99.99,,2013-02-10 13:11:00,
2013-02-10 06:21:00,12.0,3.0,-100.00,SW,220,7.0,-999.0,65,-99.99,,,-99.99,,2013-02-10 13:21:00,
2013-02-10 06:31:00,12.0,3.0,-100.00,SW,220,7.0,-999.0,65,-99.99,,,-99.99,,2013-02-10 13:31:00,
2013-02-10 06:41:00,13.0,3.0,-100.00,SW,215,7.0,-999.0,63,-99.99,,,-99.99,,2013-02-10 13:41:00,
2013-02-10 06:52:00,13.0,3.0,-100.00,SW,215,7.0,-999.0,63,-99.99,,,-99.99,,2013-02-10 13:52:00,
2013-02-10 07:02:00,13.0,3.0,-100.00,SW,215,4.0,10.0,63,-99.99,,,-99.99,,2013-02-10 14:02:00,
2013-02-10 07:11:00,13.0,3.0,-100.00,SW,215,4.0,10.0,63,-99.99,,,-99.99,,2013-02-10 14:11:00,
2013-02-10 07:21:00,13.0,2.0,-100.00,North,-999,-999.0,-999.0,62,-99.99,,,-99.99,,2013-02-10 14:21:00,
2013-02-10 07:32:00,13.0,2.0,-100.00,North,-999,-999.0,-999.0,62,-99.99,,,-99.99,,2013-02-10 14:32:00,
2013-02-10 07:41:00,13.0,2.0,-100.00,SSW,210,5.0,11.0,62,-99.99,,,-99.99,,2013-02-10 14:41:00,
2013-02-10 07:52:00,13.0,2.0,-100.00,SSW,210,5.0,11.0,62,-99.99,,,-99.99,,2013-02-10 14:52:00,
2013-02-10 08:01:00,13.0,2.0,-100.00,SSW,200,7.0,13.0,59,-99.99,,,-99.99,,2013-02-10 15:01:00,
2013-02-10 08:11:00,13.0,2.0,-100.00,SSW,200,7.0,13.0,59,-99.99,,,-99.99,,2013-02-10 15:11:00,
2013-02-10 08:21:00,14.0,2.0,-100.00,South,190,8.0,16.0,57,-99.99,,,-99.99,,2013-02-10 15:21:00,
2013-02-10 08:32:00,14.0,2.0,-100.00,South,190,8.0,16.0,57,-99.99,,,-99.99,,2013-02-10 15:32:00,
2013-02-10 08:42:00,14.0,1.0,-100.00,South,185,4.0,11.0,55,-99.99,,,-99.99,,2013-02-10 15:42:00,
2013-02-10 08:52:00,14.0,1.0,-100.00,South,185,4.0,11.0,55,-99.99,,,-99.99,,2013-02-10 15:52:00,
2013-02-10 09:02:00,15.0,1.0,-100.00,South,170,2.0,7.0,52,-99.99,,,-99.99,,2013-02-10 16:02:00,
2013-02-10 09:11:00,15.0,1.0,-100.00,South,170,2.0,7.0,52,-99.99,,,-99.99,,2013-02-10 16:11:00,
2013-02-10 09:21:00,16.0,2.0,-100.00,South,170,4.0,7.0,52,-99.99,,,-99.99,,2013-02-10 16:21:00,
2013-02-10 09:32:00,16.0,2.0,-100.00,South,170,4.0,7.0,52,-99.99,,,-99.99,,2013-02-10 16:32:00,
2013-02-10 09:42:00,16.0,2.0,-100.00,South,170,5.0,10.0,52,-99.99,,,-99.99,,2013-02-10 16:42:00,
2013-02-10 09:52:00,16.0,2.0,-100.00,South,170,5.0,10.0,52,-99.99,,,-99.99,,2013-02-10 16:52:00,
2013-02-10 10:01:00,17.0,2.0,-100.00,SSE,160,7.0,10.0,50,-99.99,,,-99.99,,2013-02-10 17:01:00,
2013-02-10 10:11:00,17.0,2.0,-100.00,SSE,160,7.0,10.0,50,-99.99,,,-99.99,,2013-02-10 17:11:00,
2013-02-10 10:21:00,17.0,2.0,-100.00,SSE,155,6.0,14.0,49,-99.99,,,-99.99,,2013-02-10 17:21:00,
2013-02-10 10:32:00,17.0,2.0,-100.00,SSE,155,6.0,14.0,49,-99.99,,,-99.99,,2013-02-10 17:32:00,
2013-02-10 10:42:00,17.0,2.0,-100.00,SSE,165,4.0,11.0,51,-99.99,,,-99.99,,2013-02-10 17:42:00,
2013-02-10 10:52:00,17.0,2.0,-100.00,SSE,165,4.0,11.0,51,-99.99,,,-99.99,,2013-02-10 17:52:00,
2013-02-10 11:02:00,16.0,4.0,-100.00,South,185,6.0,13.0,56,-99.99,,,-99.99,,2013-02-10 18:02:00,
2013-02-10 11:11:00,16.0,4.0,-100.00,South,185,6.0,13.0,56,-99.99,,,-99.99,,2013-02-10 18:11:00,
2013-02-10 11:21:00,17.0,6.0,-100.00,SSW,205,5.0,11.0,61,-99.99,,,-99.99,,2013-02-10 18:21:00,
2013-02-10 11:32:00,17.0,6.0,-100.00,SSW,205,5.0,11.0,61,-99.99,,,-99.99,,2013-02-10 18:32:00,
2013-02-10 11:42:00,19.0,7.0,-100.00,SSW,195,4.0,12.0,58,-99.99,,,-99.99,,2013-02-10 18:42:00,
2013-02-10 11:52:00,19.0,7.0,-100.00,SSW,195,4.0,12.0,58,-99.99,,,-99.99,,2013-02-10 18:52:00,
2013-02-10 12:01:00,17.0,8.0,-100.00,SW,225,3.0,9.0,66,-99.99,,,-99.99,,2013-02-10 19:01:00,
2013-02-10 12:11:00,17.0,8.0,-100.00,SW,225,3.0,9.0,66,-99.99,,,-99.99,,2013-02-10 19:11:00,
2013-02-10 12:21:00,15.0,8.0,-100.00,WSW,245,1.0,6.0,71,-99.99,,,-99.99,,2013-02-10 19:21:00,
2013-02-10 12:32:00,15.0,8.0,-100.00,WSW,245,1.0,6.0,71,-99.99,,,-99.99,,2013-02-10 19:32:00,
2013-02-10 12:42:00,16.0,9.0,-100.00,WSW,255,4.0,-999.0,73,-99.99,,,-99.99,,2013-02-10 19:42:00,
2013-02-10 12:52:00,16.0,9.0,-100.00,WSW,255,4.0,-999.0,73,-99.99,,,-99.99,,2013-02-10 19:52:00,
2013-02-10 13:02:00,15.0,10.0,-100.00,West,270,3.0,6.0,78,-99.99,,,-99.99,,2013-02-10 20:02:00,
2013-02-10 13:11:00,15.0,10.0,-100.00,West,270,3.0,6.0,78,-99.99,,,-99.99,,2013-02-10 20:11:00,
2013-02-10 13:21:00,16.0,11.0,-100.00,West,280,5.0,7.0,79,-99.99,,,-99.99,,2013-02-10 20:21:00,
2013-02-10 13:32:00,16.0,11.0,-100.00,West,280,5.0,7.0,79,-99.99,,,-99.99,,2013-02-10 20:32:00,
2013-02-10 13:42:00,17.0,12.0,-100.00,West,280,3.0,7.0,80,-99.99,,,-99.99,,2013-02-10 20:42:00,
2013-02-10 13:52:00,17.0,12.0,-100.00,West,280,3.0,7.0,80,-99.99,,,-99.99,,2013-02-10 20:52:00,
2013-02-10 14:02:00,17.0,12.0,-100.00,West,275,3.0,7.0,78,-99.99,,,-99.99,,2013-02-10 21:02:00,
2013-02-10 14:11:00,17.0,12.0,-100.00,West,275,3.0,7.0,78,-99.99,,,-99.99,,2013-02-10 21:11:00,
2013-02-10 14:21:00,17.0,11.0,-100.00,West,270,4.0,7.0,78,-99.99,,,-99.99,,2013-02-10 21:21:00,
2013-02-10 14:32:00,17.0,11.0,-100.00,West,270,4.0,7.0,78,-99.99,,,-99.99,,2013-02-10 21:32:00,
2013-02-10 14:42:00,17.0,11.0,-100.00,West,275,4.0,7.0,78,-99.99,,,-99.99,,2013-02-10 21:42:00,
2013-02-10 14:52:00,17.0,11.0,-100.00,West,275,4.0,7.0,78,-99.99,,,-99.99,,2013-02-10 21:52:00,
2013-02-10 15:02:00,16.0,11.0,-100.00,West,275,3.0,7.0,79,-99.99,,,-99.99,,2013-02-10 22:02:00,
2013-02-10 15:11:00,16.0,11.0,-100.00,West,275,3.0,7.0,79,-99.99,,,-99.99,,2013-02-10 22:11:00,
2013-02-10 15:21:00,15.0,11.0,-100.00,WNW,290,6.0,9.0,83,-99.99,,,-99.99,,2013-02-10 22:21:00,
2013-02-10 15:32:00,15.0,11.0,-100.00,WNW,290,6.0,9.0,83,-99.99,,,-99.99,,2013-02-10 22:32:00,
2013-02-10 15:42:00,15.0,11.0,-100.00,WNW,295,2.0,7.0,83,-99.99,,,-99.99,,2013-02-10 22:42:00,
2013-02-10 15:52:00,15.0,11.0,-100.00,WNW,295,2.0,7.0,83,-99.99,,,-99.99,,2013-02-10 22:52:00,
2013-02-10 16:02:00,14.0,11.0,-100.00,WNW,300,3.0,9.0,85,-99.99,,,-99.99,,2013-02-10 23:02:00,
2013-02-10 16:11:00,14.0,11.0,-100.00,WNW,300,3.0,9.0,85,-99.99,,,-99.99,,2013-02-10 23:11:00,
2013-02-10 16:22:00,14.0,11.0,-100.00,NW,305,6.0,-999.0,86,-99.99,,,-99.99,,2013-02-10 23:22:00,
2013-02-10 16:32:00,14.0,11.0,-100.00,NW,305,6.0,-999.0,86,-99.99,,,-99.99,,2013-02-10 23:32:00,
2013-02-10 16:42:00,14.0,11.0,-100.00,NW,310,3.0,7.0,87,-99.99,,,-99.99,,2013-02-10 23:42:00,
2013-02-10 16:52:00,14.0,11.0,-100.00,NW,310,3.0,7.0,87,-99.99,,,-99.99,,2013-02-10 23:52:00,
2013-02-10 17:02:00,14.0,11.0,-100.00,NW,310,2.0,7.0,87,-99.99,,,-99.99,,2013-02-11 00:02:00,
2013-02-10 17:11:00,14.0,11.0,-100.00,NW,310,2.0,7.0,87,-99.99,,,-99.99,,2013-02-11 00:11:00,
2013-02-10 17:22:00,13.0,10.0,-100.00,NW,310,3.0,7.0,87,-99.99,,,-99.99,,2013-02-11 00:22:00,
2013-02-10 17:32:00,13.0,10.0,-100.00,NW,310,3.0,7.0,87,-99.99,,,-99.99,,2013-02-11 00:32:00,
2013-02-10 17:42:00,12.0,9.0,-100.00,NW,310,5.0,9.0,87,-99.99,,,-99.99,,2013-02-11 00:42:00,
2013-02-10 17:52:00,12.0,9.0,-100.00,NW,310,5.0,9.0,87,-99.99,,,-99.99,,2013-02-11 00:52:00,
2013-02-10 18:01:00,11.0,8.0,-100.00,NW,315,4.0,7.0,88,-99.99,,,-99.99,,2013-02-11 01:01:00,
2013-02-10 18:11:00,11.0,8.0,-100.00,NW,315,4.0,7.0,88,-99.99,,,-99.99,,2013-02-11 01:11:00,
2013-02-10 18:21:00,10.0,8.0,-100.00,NW,315,2.0,6.0,88,-99.99,,,-99.99,,2013-02-11 01:21:00,
2013-02-10 18:32:00,10.0,8.0,-100.00,NW,315,2.0,6.0,88,-99.99,,,-99.99,,2013-02-11 01:32:00,
2013-02-10 18:41:00,10.0,8.0,-100.00,NW,320,3.0,6.0,89,-99.99,,,-99.99,,2013-02-11 01:41:00,
2013-02-10 18:52:00,10.0,8.0,-100.00,NW,320,3.0,6.0,89,-99.99,,,-99.99,,2013-02-11 01:52:00,
2013-02-10 19:01:00,10.0,7.0,-100.00,North,-999,-999.0,-999.0,90,-99.99,,,-99.99,,2013-02-11 02:01:00,
2013-02-10 19:11:00,10.0,7.0,-100.00,North,-999,-999.0,-999.0,90,-99.99,,,-99.99,,2013-02-11 02:11:00,
2013-02-10 19:21:00,9.0,7.0,-100.00,NW,320,4.0,7.0,90,-99.99,,,-99.99,,2013-02-11 02:21:00,
2013-02-10 19:32:00,9.0,7.0,-100.00,NW,320,4.0,7.0,90,-99.99,,,-99.99,,2013-02-11 02:32:00,
2013-02-10 19:42:00,9.0,7.0,-100.00,NW,320,3.0,7.0,90,-99.99,,,-99.99,,2013-02-11 02:42:00,
2013-02-10 19:52:00,9.0,7.0,-100.00,NW,320,3.0,7.0,90,-99.99,,,-99.99,,2013-02-11 02:52:00,
2013-02-10 20:02:00,9.0,7.0,-100.00,NW,325,5.0,-999.0,90,-99.99,,,-99.99,,2013-02-11 03:02:00,
2013-02-10 20:11:00,9.0,7.0,-100.00,NW,325,5.0,-999.0,90,-99.99,,,-99.99,,2013-02-11 03:11:00,
2013-02-10 20:21:00,8.0,6.0,-100.00,NW,325,3.0,6.0,90,-99.99,,,-99.99,,2013-02-11 03:21:00,
2013-02-10 20:32:00,8.0,6.0,-100.00,NW,325,3.0,6.0,90,-99.99,,,-99.99,,2013-02-11 03:32:00,
2013-02-10 20:42:00,7.0,5.0,-100.00,NW,325,2.0,6.0,90,-99.99,,,-99.99,,2013-02-11 03:42:00,
2013-02-10 20:52:00,7.0,5.0,-100.00,NW,325,2.0,6.0,90,-99.99,,,-99.99,,2013-02-11 03:52:00,
2013-02-10 21:01:00,6.0,4.0,-100.00,NW,325,4.0,6.0,90,-99.99,,,-99.99,,2013-02-11 04:01:00,
2013-02-10 21:11:00,6.0,4.0,-100.00,NW,325,4.0,6.0,90,-99.99,,,-99.99,,2013-02-11 04:11:00,
2013-02-10 21:21:00,7.0,4.0,-100.00,NW,325,4.0,-999.0,90,-99.99,,,-99.99,,2013-02-11 04:21:00,
2013-02-10 21:32:00,7.0,4.0,-100.00,NW,325,4.0,-999.0,90,-99.99,,,-99.99,,2013-02-11 04:32:00,
2013-02-10 21:42:00,6.0,4.0,-100.00,NW,325,2.0,6.0,90,-99.99,,,-99.99,,2013-02-11 04:42:00,
2013-02-10 21:52:00,6.0,4.0,-100.00,NW,325,2.0,6.0,90,-99.99,,,-99.99,,2013-02-11 04:52:00,
2013-02-10 22:01:00,6.0,4.0,-100.00,NW,325,2.0,5.0,90,-99.99,,,-99.99,,2013-02-11 05:01:00,
2013-02-10 22:12:00,6.0,4.0,-100.00,NW,325,2.0,5.0,90,-99.99,,,-99.99,,2013-02-11 05:12:00,
2013-02-10 22:22:00,5.0,3.0,-100.00,NW,320,2.0,-999.0,90,-99.99,,,-99.99,,2013-02-11 05:22:00,
2013-02-10 22:32:00,5.0,3.0,-100.00,NW,320,2.0,-999.0,90,-99.99,,,-99.99,,2013-02-11 05:32:00,
2013-02-10 22:42:00,6.0,4.0,-100.00,NW,320,1.0,2.0,90,-99.99,,,-99.99,,2013-02-11 05:42:00,
2013-02-10 22:53:00,6.0,4.0,-100.00,NW,320,1.0,2.0,90,-99.99,,,-99.99,,2013-02-11 05:53:00,
2013-02-10 23:02:00,7.0,4.0,-100.00,NW,325,2.0,6.0,90,-99.99,,,-99.99,,2013-02-11 06:02:00,
2013-02-10 23:11:00,7.0,4.0,-100.00,NW,325,2.0,6.0,90,-99.99,,,-99.99,,2013-02-11 06:11:00,
2013-02-10 23:21:00,7.0,5.0,-100.00,NW,325,0.0,4.0,90,-99.99,,,-99.99,,2013-02-11 06:21:00,
2013-02-10 23:32:00,7.0,5.0,-100.00,NW,325,0.0,4.0,90,-99.99,,,-99.99,,2013-02-11 06:32:00,
2013-02-10 23:42:00,7.0,5.0,-100.00,NW,325,0.0,4.0,90,-99.99,,,-99.99,,2013-02-11 06:42:00,
2013-02-10 23:52:00,7.0,5.0,-100.00,NW,325,0.0,4.0,90,-99.99,,,-99.99,,2013-02-11 06:52:00,